UAE928 OMDB-HECA
Flight info
| Callsign | UAE928 |
|---|---|
| Flight time | 3h 17m |
| Altitude | 34000 |
| Route | SENPA N571 ALPOB L768 VATIM/N0495F360 L550 NOVPA N697 MENLI L677 CVO |
| Aircraft | B77W/H-SDE1E2E3FGHIJ2J3J4J5M1RWXY/LB1D1 |
Departure
| Time | 2026-05-05 21:15 |
|---|---|
| Airport | Dubai International Airport (OMDB) |
Arrival
| Time | 2026-05-06 00:32 |
|---|---|
| Airport | Cairo International Airport (HECA) |
| Time | Latitude | Longitude | Altitude | Speed | Heading |
|---|---|---|---|---|---|
| 2026-05-05 20:24 | 25.24433 | 55.37220 | 31 ft | 0 kts | 211° |
| 2026-05-05 21:02 | 25.24449 | 55.37231 | 31 ft | 4 kts | 211° |
| 2026-05-05 21:02 | 25.24471 | 55.37246 | 29 ft | 4 kts | 217° |
| 2026-05-05 21:02 | 25.24492 | 55.37263 | 31 ft | 4 kts | 197° |
| 2026-05-05 21:03 | 25.24515 | 55.37264 | 30 ft | 4 kts | 155° |
| 2026-05-05 21:03 | 25.24531 | 55.37245 | 31 ft | 4 kts | 113° |
| 2026-05-05 21:03 | 25.24538 | 55.37229 | 32 ft | 1 kts | 122° |
| 2026-05-05 21:03 | 25.24539 | 55.37227 | 32 ft | 0 kts | 122° |
| 2026-05-05 21:06 | 25.24538 | 55.37228 | 32 ft | 0 kts | 122° |
| 2026-05-05 21:06 | 25.24537 | 55.37231 | 32 ft | 1 kts | 122° |
| 2026-05-05 21:06 | 25.24531 | 55.37241 | 32 ft | 3 kts | 122° |
| 2026-05-05 21:06 | 25.24501 | 55.37295 | 32 ft | 13 kts | 121° |
| 2026-05-05 21:07 | 25.24452 | 55.37383 | 29 ft | 14 kts | 122° |
| 2026-05-05 21:07 | 25.24402 | 55.37472 | 29 ft | 14 kts | 122° |
| 2026-05-05 21:07 | 25.24352 | 55.37561 | 29 ft | 14 kts | 122° |
| 2026-05-05 21:07 | 25.24327 | 55.37658 | 28 ft | 14 kts | 81° |
| 2026-05-05 21:08 | 25.24334 | 55.37761 | 26 ft | 14 kts | 104° |
| 2026-05-05 21:08 | 25.24290 | 55.37853 | 26 ft | 14 kts | 122° |
| 2026-05-05 21:08 | 25.24240 | 55.37942 | 26 ft | 14 kts | 121° |
| 2026-05-05 21:08 | 25.24215 | 55.38037 | 27 ft | 11 kts | 68° |
| 2026-05-05 21:09 | 25.24219 | 55.38044 | 27 ft | 0 kts | 60° |
| 2026-05-05 21:09 | 25.24239 | 55.38073 | 28 ft | 16 kts | 44° |
| 2026-05-05 21:10 | 25.24376 | 55.38174 | 31 ft | 32 kts | 31° |
| 2026-05-05 21:10 | 25.24521 | 55.38268 | 27 ft | 0 kts | 31° |
| 2026-05-05 21:11 | 25.24524 | 55.38270 | 27 ft | 1 kts | 31° |
| 2026-05-05 21:11 | 25.24527 | 55.38272 | 27 ft | 0 kts | 31° |
| 2026-05-05 21:12 | 25.24530 | 55.38274 | 27 ft | 1 kts | 31° |
| 2026-05-05 21:12 | 25.24547 | 55.38285 | 27 ft | 5 kts | 31° |
| 2026-05-05 21:12 | 25.24603 | 55.38318 | 27 ft | 11 kts | 21° |
| 2026-05-05 21:12 | 25.24664 | 55.38281 | 27 ft | 11 kts | 306° |
| 2026-05-05 21:13 | 25.24671 | 55.38272 | 27 ft | 0 kts | 306° |
| 2026-05-05 21:14 | 25.24683 | 55.38254 | 27 ft | 23 kts | 306° |
| 2026-05-05 21:14 | 25.24919 | 55.37833 | 31 ft | 102 kts | 301° |
| 2026-05-05 21:14 | 25.25412 | 55.36947 | 30 ft | 166 kts | 302° |
| 2026-05-05 21:15 | 25.26052 | 55.35750 | 300 ft | 190 kts | 301° |
| 2026-05-05 21:15 | 25.26707 | 55.34521 | 957 ft | 190 kts | 301° |
| 2026-05-05 21:15 | 25.27428 | 55.33230 | 1390 ft | 204 kts | 303° |
| 2026-05-05 21:15 | 25.28249 | 55.31846 | 1691 ft | 225 kts | 303° |
| 2026-05-05 21:16 | 25.28825 | 55.30876 | 2026 ft | 232 kts | 304° |
| 2026-05-05 21:16 | 25.29803 | 55.28641 | 2319 ft | 260 kts | 278° |
| 2026-05-05 21:16 | 25.29963 | 55.26629 | 2925 ft | 268 kts | 273° |
| 2026-05-05 21:16 | 25.30061 | 55.24547 | 3643 ft | 273 kts | 274° |
| 2026-05-05 21:17 | 25.30171 | 55.22438 | 4416 ft | 277 kts | 275° |
| 2026-05-05 21:17 | 25.30308 | 55.20308 | 5194 ft | 279 kts | 276° |
| 2026-05-05 21:17 | 25.30409 | 55.18888 | 5719 ft | 281 kts | 276° |
| 2026-05-05 21:17 | 25.30416 | 55.16716 | 6454 ft | 285 kts | 268° |
| 2026-05-05 21:18 | 25.30238 | 55.14518 | 7194 ft | 289 kts | 265° |
| 2026-05-05 21:18 | 25.30028 | 55.12300 | 7942 ft | 292 kts | 265° |
| 2026-05-05 21:18 | 25.29823 | 55.10052 | 8692 ft | 295 kts | 265° |
| 2026-05-05 21:18 | 25.29628 | 55.07791 | 9432 ft | 298 kts | 265° |
| 2026-05-05 21:19 | 25.29438 | 55.05489 | 10103 ft | 303 kts | 265° |
| 2026-05-05 21:19 | 25.29250 | 55.03131 | 10601 ft | 317 kts | 265° |
| 2026-05-05 21:19 | 25.29053 | 55.00603 | 10775 ft | 343 kts | 265° |
| 2026-05-05 21:19 | 25.28842 | 54.97877 | 10961 ft | 368 kts | 265° |
| 2026-05-05 21:20 | 25.28617 | 54.94982 | 11321 ft | 386 kts | 266° |
| 2026-05-05 21:20 | 25.28468 | 54.91997 | 12009 ft | 393 kts | 269° |
| 2026-05-05 21:20 | 25.28403 | 54.88959 | 12828 ft | 398 kts | 269° |
| 2026-05-05 21:20 | 25.28337 | 54.85897 | 13726 ft | 400 kts | 269° |
| 2026-05-05 21:21 | 25.28257 | 54.82811 | 14524 ft | 402 kts | 269° |
| 2026-05-05 21:21 | 25.28167 | 54.79716 | 15300 ft | 405 kts | 269° |
| 2026-05-05 21:21 | 25.28073 | 54.76586 | 16056 ft | 409 kts | 269° |
| 2026-05-05 21:21 | 25.28162 | 54.73446 | 16784 ft | 411 kts | 280° |
| 2026-05-05 21:22 | 25.28889 | 54.70371 | 17492 ft | 415 kts | 288° |
| 2026-05-05 21:22 | 25.29767 | 54.67315 | 18216 ft | 419 kts | 288° |
| 2026-05-05 21:22 | 25.30620 | 54.64226 | 18874 ft | 423 kts | 287° |
| 2026-05-05 21:22 | 25.31442 | 54.61099 | 19586 ft | 424 kts | 286° |
| 2026-05-05 21:23 | 25.32240 | 54.57953 | 20322 ft | 425 kts | 285° |
| 2026-05-05 21:23 | 25.33024 | 54.54830 | 20991 ft | 429 kts | 285° |
| 2026-05-05 21:23 | 25.33849 | 54.51598 | 21628 ft | 432 kts | 286° |
| 2026-05-05 21:23 | 25.34695 | 54.48447 | 22246 ft | 436 kts | 286° |
| 2026-05-05 21:24 | 25.35576 | 54.45226 | 22877 ft | 439 kts | 286° |
| 2026-05-05 21:24 | 25.36463 | 54.41984 | 23473 ft | 442 kts | 286° |
| 2026-05-05 21:24 | 25.37350 | 54.38719 | 23996 ft | 444 kts | 286° |
| 2026-05-05 21:24 | 25.38236 | 54.35442 | 24522 ft | 446 kts | 285° |
| 2026-05-05 21:25 | 25.39124 | 54.32145 | 25050 ft | 448 kts | 285° |
| 2026-05-05 21:25 | 25.40014 | 54.28834 | 25551 ft | 450 kts | 285° |
| 2026-05-05 21:25 | 25.40885 | 54.25514 | 26034 ft | 452 kts | 284° |
| 2026-05-05 21:25 | 25.41723 | 54.22144 | 26533 ft | 454 kts | 284° |
| 2026-05-05 21:26 | 25.42548 | 54.18768 | 27001 ft | 456 kts | 284° |
| 2026-05-05 21:26 | 25.43382 | 54.15371 | 27479 ft | 459 kts | 284° |
| 2026-05-05 21:26 | 25.44225 | 54.11968 | 28008 ft | 459 kts | 284° |
| 2026-05-05 21:26 | 25.45068 | 54.08563 | 28483 ft | 460 kts | 284° |
| 2026-05-05 21:27 | 25.45900 | 54.05133 | 28866 ft | 462 kts | 283° |
| 2026-05-05 21:27 | 25.46728 | 54.01683 | 29229 ft | 465 kts | 283° |
| 2026-05-05 21:27 | 25.47558 | 53.98218 | 29585 ft | 467 kts | 283° |
| 2026-05-05 21:27 | 25.48390 | 53.94742 | 29926 ft | 468 kts | 283° |
| 2026-05-05 21:28 | 25.49224 | 53.91259 | 30305 ft | 467 kts | 283° |
| 2026-05-05 21:28 | 25.50054 | 53.87798 | 30754 ft | 465 kts | 283° |
| 2026-05-05 21:28 | 25.50881 | 53.84351 | 31191 ft | 462 kts | 283° |
| 2026-05-05 21:28 | 25.51703 | 53.80917 | 31597 ft | 461 kts | 283° |
| 2026-05-05 21:29 | 25.52524 | 53.77482 | 31991 ft | 460 kts | 282° |
| 2026-05-05 21:29 | 25.53342 | 53.74059 | 32378 ft | 459 kts | 282° |
| 2026-05-05 21:29 | 25.54160 | 53.70637 | 32748 ft | 459 kts | 282° |
| 2026-05-05 21:29 | 25.54966 | 53.67273 | 33145 ft | 458 kts | 282° |
| 2026-05-05 21:30 | 25.55776 | 53.63891 | 33726 ft | 451 kts | 282° |
| 2026-05-05 21:30 | 25.56577 | 53.60540 | 34139 ft | 449 kts | 282° |
| 2026-05-05 21:30 | 25.57374 | 53.57197 | 34414 ft | 449 kts | 282° |
| 2026-05-05 21:30 | 25.58170 | 53.53852 | 34665 ft | 449 kts | 282° |
| 2026-05-05 21:31 | 25.58966 | 53.50505 | 34961 ft | 449 kts | 281° |
| 2026-05-05 21:31 | 25.59759 | 53.47169 | 35290 ft | 447 kts | 281° |
| 2026-05-05 21:31 | 25.60549 | 53.43845 | 35596 ft | 446 kts | 281° |
| 2026-05-05 21:31 | 25.61339 | 53.40512 | 35694 ft | 449 kts | 281° |
| 2026-05-05 21:32 | 25.62924 | 53.33804 | 35766 ft | 450 kts | 281° |
| 2026-05-05 21:32 | 25.64497 | 53.27136 | 35763 ft | 444 kts | 281° |
| 2026-05-05 21:33 | 25.66053 | 53.20519 | 35776 ft | 443 kts | 281° |
| 2026-05-05 21:33 | 25.67592 | 53.13960 | 35767 ft | 442 kts | 281° |
| 2026-05-05 21:34 | 25.69138 | 53.07361 | 35765 ft | 442 kts | 281° |
| 2026-05-05 21:34 | 25.70972 | 53.00853 | 35769 ft | 445 kts | 288° |
| 2026-05-05 21:35 | 25.73698 | 52.94650 | 35768 ft | 449 kts | 293° |
| 2026-05-05 21:35 | 25.76632 | 52.88529 | 35767 ft | 450 kts | 293° |
| 2026-05-05 21:36 | 25.79547 | 52.82390 | 35764 ft | 450 kts | 293° |
| 2026-05-05 21:36 | 25.82456 | 52.76221 | 35765 ft | 451 kts | 293° |
| 2026-05-05 21:37 | 25.85360 | 52.70048 | 35767 ft | 452 kts | 293° |
| 2026-05-05 21:37 | 25.88275 | 52.63846 | 35767 ft | 452 kts | 293° |
| 2026-05-05 21:38 | 25.91153 | 52.57632 | 35767 ft | 452 kts | 291° |
| 2026-05-05 21:38 | 25.93903 | 52.51353 | 35766 ft | 452 kts | 291° |
| 2026-05-05 21:39 | 25.96654 | 52.45067 | 35768 ft | 452 kts | 291° |
| 2026-05-05 21:39 | 25.99404 | 52.38829 | 35763 ft | 452 kts | 291° |
| 2026-05-05 21:40 | 26.02203 | 52.32559 | 35767 ft | 452 kts | 291° |
| 2026-05-05 21:40 | 26.05007 | 52.26292 | 35763 ft | 452 kts | 291° |
| 2026-05-05 21:41 | 26.07801 | 52.20027 | 35765 ft | 452 kts | 291° |
| 2026-05-05 21:41 | 26.10588 | 52.13761 | 35777 ft | 452 kts | 291° |
| 2026-05-05 21:42 | 26.13354 | 52.07531 | 35766 ft | 452 kts | 291° |
| 2026-05-05 21:42 | 26.16135 | 52.01261 | 35757 ft | 452 kts | 291° |
| 2026-05-05 21:43 | 26.18939 | 51.95001 | 35762 ft | 452 kts | 291° |
| 2026-05-05 21:43 | 26.21736 | 51.88737 | 35762 ft | 452 kts | 290° |
| 2026-05-05 21:44 | 26.24501 | 51.82435 | 35773 ft | 452 kts | 290° |
| 2026-05-05 21:44 | 26.27264 | 51.76202 | 35754 ft | 452 kts | 290° |
| 2026-05-05 21:45 | 26.30066 | 51.69934 | 35754 ft | 451 kts | 290° |
| 2026-05-05 21:45 | 26.32862 | 51.63656 | 35754 ft | 451 kts | 290° |
| 2026-05-05 21:46 | 26.35652 | 51.57397 | 35753 ft | 451 kts | 290° |
| 2026-05-05 21:46 | 26.38323 | 51.51089 | 35768 ft | 446 kts | 285° |
| 2026-05-05 21:47 | 26.40369 | 51.44594 | 35753 ft | 444 kts | 284° |
| 2026-05-05 21:47 | 26.42425 | 51.38101 | 35746 ft | 443 kts | 284° |
| 2026-05-05 21:48 | 26.44499 | 51.31625 | 35747 ft | 443 kts | 284° |
| 2026-05-05 21:48 | 26.46565 | 51.25161 | 35751 ft | 443 kts | 284° |
| 2026-05-05 21:49 | 26.48630 | 51.18685 | 35748 ft | 443 kts | 284° |
| 2026-05-05 21:49 | 26.50690 | 51.12216 | 35759 ft | 443 kts | 284° |
| 2026-05-05 21:50 | 26.52750 | 51.05736 | 35750 ft | 443 kts | 284° |
| 2026-05-05 21:50 | 26.54792 | 50.99298 | 35753 ft | 442 kts | 284° |
| 2026-05-05 21:51 | 26.56843 | 50.92821 | 35753 ft | 442 kts | 284° |
| 2026-05-05 21:51 | 26.58873 | 50.86339 | 35751 ft | 442 kts | 283° |
| 2026-05-05 21:52 | 26.61879 | 50.76611 | 35774 ft | 441 kts | 283° |
| 2026-05-05 21:53 | 26.63885 | 50.70126 | 35758 ft | 441 kts | 283° |
| 2026-05-05 21:53 | 26.65839 | 50.63649 | 35758 ft | 439 kts | 282° |
| 2026-05-05 21:54 | 26.67745 | 50.57170 | 35746 ft | 438 kts | 282° |
| 2026-05-05 21:54 | 26.69655 | 50.50704 | 35749 ft | 438 kts | 282° |
| 2026-05-05 21:55 | 26.71476 | 50.44222 | 35748 ft | 435 kts | 280° |
| 2026-05-05 21:55 | 26.73105 | 50.37709 | 35761 ft | 435 kts | 279° |
| 2026-05-05 21:56 | 26.74748 | 50.31232 | 35743 ft | 436 kts | 280° |
| 2026-05-05 21:56 | 26.76462 | 50.24713 | 35747 ft | 437 kts | 282° |
| 2026-05-05 21:57 | 26.78416 | 50.18257 | 35745 ft | 438 kts | 283° |
| 2026-05-05 21:57 | 26.80380 | 50.11812 | 35739 ft | 438 kts | 282° |
| 2026-05-05 21:58 | 26.82310 | 50.05340 | 35735 ft | 438 kts | 282° |
| 2026-05-05 21:58 | 26.84234 | 49.98857 | 35740 ft | 439 kts | 282° |
| 2026-05-05 21:59 | 26.86157 | 49.92373 | 35729 ft | 438 kts | 282° |
| 2026-05-05 21:59 | 26.88074 | 49.85896 | 35734 ft | 437 kts | 282° |
| 2026-05-05 22:00 | 26.89985 | 49.79426 | 35739 ft | 437 kts | 282° |
| 2026-05-05 22:00 | 26.91889 | 49.72970 | 35733 ft | 436 kts | 282° |
| 2026-05-05 22:01 | 26.93778 | 49.66548 | 35729 ft | 436 kts | 282° |
| 2026-05-05 22:01 | 26.95673 | 49.60096 | 35725 ft | 436 kts | 282° |
| 2026-05-05 22:02 | 26.97562 | 49.53652 | 35719 ft | 435 kts | 282° |
| 2026-05-05 22:02 | 26.99447 | 49.47210 | 35722 ft | 434 kts | 281° |
| 2026-05-05 22:03 | 27.01517 | 49.40817 | 35732 ft | 439 kts | 287° |
| 2026-05-05 22:03 | 27.04416 | 49.34725 | 35732 ft | 445 kts | 292° |
| 2026-05-05 22:04 | 27.07486 | 49.28704 | 35734 ft | 445 kts | 291° |
| 2026-05-05 22:04 | 27.10537 | 49.22662 | 35739 ft | 445 kts | 291° |
| 2026-05-05 22:05 | 27.13571 | 49.16619 | 35747 ft | 445 kts | 291° |
| 2026-05-05 22:05 | 27.16607 | 49.10561 | 35750 ft | 445 kts | 291° |
| 2026-05-05 22:06 | 27.19642 | 49.04497 | 35770 ft | 445 kts | 291° |
| 2026-05-05 22:06 | 27.22159 | 48.99464 | 35761 ft | 445 kts | 291° |
| 2026-05-05 22:07 | 27.25181 | 48.93411 | 35755 ft | 444 kts | 291° |
| 2026-05-05 22:07 | 27.28194 | 48.87365 | 35762 ft | 443 kts | 291° |
| 2026-05-05 22:08 | 27.31200 | 48.81323 | 35773 ft | 442 kts | 291° |
| 2026-05-05 22:08 | 27.34200 | 48.75285 | 35785 ft | 442 kts | 291° |
| 2026-05-05 22:09 | 27.37189 | 48.69259 | 35781 ft | 441 kts | 291° |
| 2026-05-05 22:09 | 27.40176 | 48.63230 | 35787 ft | 440 kts | 291° |
| 2026-05-05 22:10 | 27.43153 | 48.57211 | 35785 ft | 440 kts | 290° |
| 2026-05-05 22:10 | 27.46124 | 48.51197 | 35809 ft | 439 kts | 290° |
| 2026-05-05 22:11 | 27.49092 | 48.45181 | 35801 ft | 439 kts | 290° |
| 2026-05-05 22:11 | 27.52041 | 48.39193 | 35805 ft | 439 kts | 290° |
| 2026-05-05 22:12 | 27.55002 | 48.33173 | 35806 ft | 439 kts | 290° |
| 2026-05-05 22:12 | 27.57961 | 48.27150 | 35813 ft | 439 kts | 290° |
| 2026-05-05 22:13 | 27.60924 | 48.21125 | 35815 ft | 439 kts | 290° |
| 2026-05-05 22:13 | 27.63882 | 48.15104 | 35812 ft | 439 kts | 290° |
| 2026-05-05 22:14 | 27.66836 | 48.09079 | 35817 ft | 439 kts | 290° |
| 2026-05-05 22:14 | 27.69785 | 48.03056 | 35822 ft | 438 kts | 290° |
| 2026-05-05 22:15 | 27.72724 | 47.97031 | 35836 ft | 438 kts | 290° |
| 2026-05-05 22:15 | 27.75653 | 47.91016 | 35827 ft | 437 kts | 290° |
| 2026-05-05 22:16 | 27.78577 | 47.85002 | 35830 ft | 436 kts | 290° |
| 2026-05-05 22:16 | 27.81489 | 47.79004 | 35826 ft | 435 kts | 290° |
| 2026-05-05 22:17 | 27.84291 | 47.72966 | 35854 ft | 431 kts | 285° |
| 2026-05-05 22:17 | 27.86343 | 47.66680 | 35841 ft | 426 kts | 281° |
| 2026-05-05 22:18 | 27.88284 | 47.60349 | 35840 ft | 427 kts | 281° |
| 2026-05-05 22:18 | 27.90244 | 47.54008 | 35850 ft | 428 kts | 282° |
| 2026-05-05 22:19 | 27.92210 | 47.47654 | 35852 ft | 428 kts | 282° |
| 2026-05-05 22:19 | 27.94175 | 47.41296 | 35871 ft | 429 kts | 281° |
| 2026-05-05 22:20 | 27.96141 | 47.34921 | 35855 ft | 429 kts | 281° |
| 2026-05-05 22:20 | 27.98088 | 47.28598 | 35863 ft | 428 kts | 281° |
| 2026-05-05 22:21 | 28.00037 | 47.22254 | 35862 ft | 427 kts | 281° |
| 2026-05-05 22:21 | 28.01982 | 47.15914 | 35875 ft | 424 kts | 281° |
| 2026-05-05 22:22 | 28.03905 | 47.09634 | 35887 ft | 422 kts | 281° |
| 2026-05-05 22:22 | 28.05831 | 47.03318 | 35884 ft | 426 kts | 281° |
| 2026-05-05 22:23 | 28.07768 | 46.96962 | 35887 ft | 427 kts | 281° |
| 2026-05-05 22:23 | 28.09706 | 46.90602 | 35881 ft | 427 kts | 281° |
| 2026-05-05 22:24 | 28.11697 | 46.84247 | 35878 ft | 428 kts | 282° |
| 2026-05-05 22:24 | 28.13821 | 46.77949 | 35898 ft | 428 kts | 283° |
| 2026-05-05 22:25 | 28.15945 | 46.71659 | 35891 ft | 427 kts | 283° |
| 2026-05-05 22:25 | 28.18043 | 46.65381 | 35893 ft | 425 kts | 282° |
| 2026-05-05 22:26 | 28.20111 | 46.59151 | 35894 ft | 425 kts | 282° |
| 2026-05-05 22:26 | 28.22187 | 46.52882 | 35898 ft | 424 kts | 282° |
| 2026-05-05 22:27 | 28.24259 | 46.46615 | 35904 ft | 424 kts | 282° |
| 2026-05-05 22:27 | 28.26329 | 46.40345 | 35905 ft | 424 kts | 282° |
| 2026-05-05 22:28 | 28.28394 | 46.34078 | 35908 ft | 425 kts | 282° |
| 2026-05-05 22:28 | 28.30462 | 46.27793 | 35911 ft | 425 kts | 282° |
| 2026-05-05 22:29 | 28.32525 | 46.21512 | 35913 ft | 425 kts | 282° |
| 2026-05-05 22:29 | 28.34590 | 46.15212 | 35910 ft | 426 kts | 282° |
| 2026-05-05 22:30 | 28.36681 | 46.08960 | 35908 ft | 428 kts | 284° |
| 2026-05-05 22:30 | 28.39013 | 46.02722 | 35915 ft | 429 kts | 285° |
| 2026-05-05 22:31 | 28.41381 | 45.96493 | 35905 ft | 430 kts | 284° |
| 2026-05-05 22:31 | 28.43722 | 45.90251 | 35926 ft | 430 kts | 284° |
| 2026-05-05 22:32 | 28.46051 | 45.83981 | 35922 ft | 430 kts | 284° |
| 2026-05-05 22:32 | 28.48350 | 45.77787 | 35923 ft | 421 kts | 284° |
| 2026-05-05 22:33 | 28.50642 | 45.71560 | 35927 ft | 432 kts | 284° |
| 2026-05-05 22:33 | 28.52980 | 45.65206 | 35945 ft | 436 kts | 284° |
| 2026-05-05 22:34 | 28.55317 | 45.58878 | 35917 ft | 432 kts | 284° |
| 2026-05-05 22:34 | 28.57631 | 45.52593 | 35930 ft | 429 kts | 284° |
| 2026-05-05 22:35 | 28.59915 | 45.46370 | 35929 ft | 429 kts | 284° |
| 2026-05-05 22:35 | 28.62208 | 45.40106 | 35928 ft | 430 kts | 284° |
| 2026-05-05 22:36 | 28.64510 | 45.33805 | 35938 ft | 432 kts | 284° |
| 2026-05-05 22:36 | 28.66823 | 45.27470 | 35936 ft | 434 kts | 284° |
| 2026-05-05 22:37 | 28.69137 | 45.21124 | 35949 ft | 435 kts | 284° |
| 2026-05-05 22:37 | 28.71453 | 45.14760 | 35939 ft | 435 kts | 283° |
| 2026-05-05 22:38 | 28.73772 | 45.08379 | 35954 ft | 436 kts | 284° |
| 2026-05-05 22:38 | 28.76087 | 45.01996 | 35946 ft | 435 kts | 283° |
| 2026-05-05 22:39 | 28.78394 | 44.95623 | 35953 ft | 435 kts | 284° |
| 2026-05-05 22:39 | 28.80692 | 44.89264 | 35947 ft | 433 kts | 283° |
| 2026-05-05 22:40 | 28.82981 | 44.82919 | 35943 ft | 432 kts | 283° |
| 2026-05-05 22:40 | 28.85071 | 44.76544 | 35946 ft | 423 kts | 277° |
| 2026-05-05 22:41 | 28.86314 | 44.70052 | 35953 ft | 416 kts | 271° |
| 2026-05-05 22:41 | 28.86874 | 44.63529 | 35953 ft | 413 kts | 268° |
| 2026-05-05 22:42 | 28.87332 | 44.57040 | 35959 ft | 413 kts | 268° |
| 2026-05-05 22:42 | 28.87797 | 44.50502 | 35934 ft | 414 kts | 268° |
| 2026-05-05 22:43 | 28.88273 | 44.43921 | 36287 ft | 416 kts | 268° |
| 2026-05-05 22:43 | 28.88513 | 44.40639 | 36671 ft | 413 kts | 268° |
| 2026-05-05 22:43 | 28.88753 | 44.37374 | 37022 ft | 411 kts | 268° |
| 2026-05-05 22:43 | 28.88989 | 44.34136 | 37317 ft | 410 kts | 268° |
| 2026-05-05 22:44 | 28.89224 | 44.30897 | 37574 ft | 409 kts | 268° |
| 2026-05-05 22:44 | 28.89457 | 44.27668 | 37791 ft | 409 kts | 268° |
| 2026-05-05 22:44 | 28.89689 | 44.24423 | 37878 ft | 410 kts | 268° |
| 2026-05-05 22:45 | 28.90153 | 44.17951 | 37945 ft | 407 kts | 268° |
| 2026-05-05 22:45 | 28.90609 | 44.11567 | 37958 ft | 401 kts | 268° |
| 2026-05-05 22:46 | 28.91056 | 44.05238 | 37956 ft | 400 kts | 268° |
| 2026-05-05 22:46 | 28.91498 | 43.98916 | 37966 ft | 399 kts | 268° |
| 2026-05-05 22:47 | 28.91937 | 43.92601 | 37963 ft | 399 kts | 268° |
| 2026-05-05 22:47 | 28.92374 | 43.86277 | 37954 ft | 400 kts | 268° |
| 2026-05-05 22:48 | 28.92810 | 43.79947 | 37677 ft | 399 kts | 268° |
| 2026-05-05 22:48 | 28.93025 | 43.76770 | 37074 ft | 405 kts | 268° |
| 2026-05-05 22:48 | 28.93242 | 43.73532 | 36441 ft | 415 kts | 268° |
| 2026-05-05 22:48 | 28.93463 | 43.70226 | 36250 ft | 420 kts | 268° |
| 2026-05-05 22:49 | 28.93688 | 43.66879 | 36076 ft | 425 kts | 268° |
| 2026-05-05 22:49 | 28.94145 | 43.60127 | 35986 ft | 427 kts | 268° |
| 2026-05-05 22:50 | 28.94601 | 43.53355 | 35973 ft | 428 kts | 268° |
| 2026-05-05 22:50 | 28.95052 | 43.46589 | 35970 ft | 428 kts | 268° |
| 2026-05-05 22:51 | 28.95498 | 43.39816 | 35988 ft | 428 kts | 268° |
| 2026-05-05 22:51 | 28.95940 | 43.33047 | 35986 ft | 427 kts | 268° |
| 2026-05-05 22:52 | 28.96375 | 43.26334 | 35978 ft | 426 kts | 268° |
| 2026-05-05 22:52 | 28.96812 | 43.19538 | 35985 ft | 426 kts | 268° |
| 2026-05-05 22:53 | 28.97241 | 43.12798 | 35983 ft | 426 kts | 268° |
| 2026-05-05 22:53 | 28.97665 | 43.06089 | 35991 ft | 426 kts | 268° |
| 2026-05-05 22:54 | 28.98089 | 42.99340 | 36005 ft | 426 kts | 268° |
| 2026-05-05 22:54 | 28.98508 | 42.92592 | 35997 ft | 426 kts | 268° |
| 2026-05-05 22:55 | 28.98925 | 42.85841 | 35997 ft | 426 kts | 268° |
| 2026-05-05 22:55 | 28.99272 | 42.80188 | 35997 ft | 425 kts | 268° |
| 2026-05-05 22:56 | 28.99681 | 42.73456 | 35999 ft | 425 kts | 268° |
| 2026-05-05 22:56 | 29.00088 | 42.66715 | 36000 ft | 425 kts | 268° |
| 2026-05-05 22:57 | 29.00487 | 42.60033 | 35993 ft | 425 kts | 268° |
| 2026-05-05 22:57 | 29.00886 | 42.53297 | 36005 ft | 425 kts | 268° |
| 2026-05-05 22:58 | 29.01282 | 42.46563 | 36006 ft | 425 kts | 268° |
| 2026-05-05 22:58 | 29.01675 | 42.39822 | 36022 ft | 425 kts | 268° |
| 2026-05-05 22:59 | 29.02065 | 42.33073 | 36021 ft | 426 kts | 268° |
| 2026-05-05 22:59 | 29.02452 | 42.26326 | 36018 ft | 426 kts | 268° |
| 2026-05-05 23:00 | 29.03025 | 42.16205 | 36031 ft | 426 kts | 268° |
| 2026-05-05 23:00 | 29.03403 | 42.09450 | 36016 ft | 426 kts | 268° |
| 2026-05-05 23:01 | 29.03778 | 42.02689 | 36029 ft | 426 kts | 268° |
| 2026-05-05 23:01 | 29.04150 | 41.95931 | 36027 ft | 426 kts | 268° |
| 2026-05-05 23:02 | 29.04519 | 41.89159 | 36011 ft | 426 kts | 268° |
| 2026-05-05 23:02 | 29.04884 | 41.82394 | 36027 ft | 426 kts | 268° |
| 2026-05-05 23:03 | 29.05246 | 41.75639 | 36046 ft | 427 kts | 268° |
| 2026-05-05 23:03 | 29.05606 | 41.68856 | 36037 ft | 427 kts | 268° |
| 2026-05-05 23:04 | 29.05961 | 41.62072 | 36025 ft | 428 kts | 268° |
| 2026-05-05 23:04 | 29.06313 | 41.55325 | 36060 ft | 428 kts | 268° |
| 2026-05-05 23:05 | 29.06662 | 41.48527 | 36037 ft | 429 kts | 268° |
| 2026-05-05 23:05 | 29.07009 | 41.41709 | 36044 ft | 429 kts | 268° |
| 2026-05-05 23:06 | 29.07354 | 41.34895 | 36041 ft | 430 kts | 268° |
| 2026-05-05 23:06 | 29.07694 | 41.28062 | 36020 ft | 431 kts | 268° |
| 2026-05-05 23:07 | 29.08032 | 41.21230 | 36039 ft | 430 kts | 268° |
| 2026-05-05 23:07 | 29.08367 | 41.14399 | 36047 ft | 431 kts | 268° |
| 2026-05-05 23:08 | 29.08699 | 41.07559 | 36052 ft | 431 kts | 267° |
| 2026-05-05 23:08 | 29.09025 | 41.00717 | 36055 ft | 431 kts | 267° |
| 2026-05-05 23:09 | 29.09350 | 40.93865 | 36055 ft | 432 kts | 267° |
| 2026-05-05 23:09 | 29.09671 | 40.87016 | 36069 ft | 432 kts | 267° |
| 2026-05-05 23:10 | 29.09989 | 40.80167 | 36060 ft | 432 kts | 267° |
| 2026-05-05 23:10 | 29.10305 | 40.73305 | 36061 ft | 432 kts | 267° |
| 2026-05-05 23:11 | 29.10615 | 40.66454 | 36062 ft | 431 kts | 267° |
| 2026-05-05 23:11 | 29.10922 | 40.59606 | 36060 ft | 431 kts | 267° |
| 2026-05-05 23:12 | 29.11227 | 40.52755 | 36056 ft | 431 kts | 267° |
| 2026-05-05 23:12 | 29.11526 | 40.45919 | 36085 ft | 430 kts | 267° |
| 2026-05-05 23:13 | 29.11818 | 40.39129 | 36070 ft | 431 kts | 267° |
| 2026-05-05 23:13 | 29.12113 | 40.32264 | 36065 ft | 432 kts | 267° |
| 2026-05-05 23:14 | 29.12403 | 40.25407 | 36064 ft | 432 kts | 267° |
| 2026-05-05 23:14 | 29.12689 | 40.18540 | 36072 ft | 432 kts | 267° |
| 2026-05-05 23:15 | 29.12973 | 40.11678 | 36062 ft | 432 kts | 267° |
| 2026-05-05 23:15 | 29.13253 | 40.04816 | 36072 ft | 432 kts | 267° |
| 2026-05-05 23:16 | 29.13530 | 39.98041 | 36074 ft | 421 kts | 267° |
| 2026-05-05 23:16 | 29.13796 | 39.91385 | 36064 ft | 418 kts | 267° |
| 2026-05-05 23:17 | 29.14054 | 39.84751 | 36068 ft | 416 kts | 267° |
| 2026-05-05 23:17 | 29.14308 | 39.78147 | 36081 ft | 417 kts | 267° |
| 2026-05-05 23:18 | 29.14560 | 39.71523 | 36071 ft | 417 kts | 267° |
| 2026-05-05 23:18 | 29.14812 | 39.64880 | 36069 ft | 418 kts | 267° |
| 2026-05-05 23:19 | 29.15058 | 39.58277 | 36070 ft | 419 kts | 267° |
| 2026-05-05 23:19 | 29.15301 | 39.51616 | 36080 ft | 420 kts | 267° |
| 2026-05-05 23:20 | 29.15543 | 39.44936 | 36067 ft | 420 kts | 267° |
| 2026-05-05 23:20 | 29.15783 | 39.38251 | 36084 ft | 421 kts | 267° |
| 2026-05-05 23:21 | 29.16020 | 39.31562 | 36083 ft | 421 kts | 267° |
| 2026-05-05 23:21 | 29.16252 | 39.24863 | 36079 ft | 421 kts | 267° |
| 2026-05-05 23:22 | 29.16483 | 39.18163 | 36050 ft | 421 kts | 267° |
| 2026-05-05 23:22 | 29.16709 | 39.11475 | 36091 ft | 421 kts | 267° |
| 2026-05-05 23:23 | 29.16932 | 39.04781 | 36083 ft | 421 kts | 267° |
| 2026-05-05 23:23 | 29.17151 | 38.98082 | 36084 ft | 421 kts | 267° |
| 2026-05-05 23:24 | 29.17368 | 38.91383 | 36085 ft | 421 kts | 267° |
| 2026-05-05 23:24 | 29.17581 | 38.84685 | 36093 ft | 422 kts | 267° |
| 2026-05-05 23:25 | 29.17791 | 38.77975 | 36085 ft | 422 kts | 267° |
| 2026-05-05 23:25 | 29.17997 | 38.71275 | 36079 ft | 422 kts | 267° |
| 2026-05-05 23:26 | 29.18201 | 38.64560 | 36105 ft | 422 kts | 267° |
| 2026-05-05 23:26 | 29.18401 | 38.57850 | 36084 ft | 422 kts | 267° |
| 2026-05-05 23:27 | 29.18597 | 38.51137 | 36081 ft | 422 kts | 267° |
| 2026-05-05 23:27 | 29.18791 | 38.44432 | 36052 ft | 422 kts | 267° |
| 2026-05-05 23:28 | 29.18981 | 38.37735 | 36074 ft | 421 kts | 266° |
| 2026-05-05 23:28 | 29.19167 | 38.31035 | 36084 ft | 421 kts | 266° |
| 2026-05-05 23:29 | 29.19349 | 38.24338 | 36079 ft | 422 kts | 266° |
| 2026-05-05 23:29 | 29.19529 | 38.17634 | 36088 ft | 422 kts | 266° |
| 2026-05-05 23:30 | 29.19706 | 38.10905 | 36081 ft | 423 kts | 266° |
| 2026-05-05 23:30 | 29.19879 | 38.04184 | 36070 ft | 423 kts | 266° |
| 2026-05-05 23:31 | 29.20050 | 37.97458 | 36068 ft | 423 kts | 266° |
| 2026-05-05 23:31 | 29.20217 | 37.90721 | 36079 ft | 423 kts | 266° |
| 2026-05-05 23:32 | 29.20381 | 37.83989 | 36064 ft | 423 kts | 266° |
| 2026-05-05 23:32 | 29.20541 | 37.77242 | 36064 ft | 423 kts | 266° |
| 2026-05-05 23:33 | 29.20698 | 37.70515 | 36048 ft | 423 kts | 266° |
| 2026-05-05 23:33 | 29.20852 | 37.63781 | 36062 ft | 423 kts | 266° |
| 2026-05-05 23:34 | 29.21002 | 37.57043 | 36066 ft | 424 kts | 266° |
| 2026-05-05 23:34 | 29.21149 | 37.50300 | 36065 ft | 424 kts | 266° |
| 2026-05-05 23:35 | 29.21291 | 37.43588 | 36071 ft | 425 kts | 266° |
| 2026-05-05 23:35 | 29.21432 | 37.36821 | 36063 ft | 425 kts | 266° |
| 2026-05-05 23:36 | 29.21569 | 37.30058 | 36068 ft | 425 kts | 266° |
| 2026-05-05 23:36 | 29.21703 | 37.23293 | 36090 ft | 425 kts | 266° |
| 2026-05-05 23:37 | 29.21834 | 37.16528 | 36068 ft | 425 kts | 266° |
| 2026-05-05 23:37 | 29.21962 | 37.09761 | 36062 ft | 425 kts | 266° |
| 2026-05-05 23:38 | 29.22085 | 37.03007 | 36057 ft | 424 kts | 266° |
| 2026-05-05 23:38 | 29.22204 | 36.96252 | 36072 ft | 424 kts | 266° |
| 2026-05-05 23:39 | 29.22321 | 36.89518 | 36049 ft | 423 kts | 266° |
| 2026-05-05 23:39 | 29.22435 | 36.82788 | 36061 ft | 422 kts | 266° |
| 2026-05-05 23:40 | 29.22543 | 36.76075 | 36056 ft | 423 kts | 266° |
| 2026-05-05 23:40 | 29.22649 | 36.69338 | 36060 ft | 423 kts | 266° |
| 2026-05-05 23:41 | 29.22751 | 36.62634 | 36061 ft | 424 kts | 266° |
| 2026-05-05 23:41 | 29.22851 | 36.55884 | 36056 ft | 424 kts | 266° |
| 2026-05-05 23:42 | 29.22948 | 36.49133 | 36076 ft | 424 kts | 266° |
| 2026-05-05 23:42 | 29.23026 | 36.43469 | 36061 ft | 425 kts | 266° |
| 2026-05-05 23:43 | 29.23115 | 36.36742 | 36061 ft | 425 kts | 266° |
| 2026-05-05 23:43 | 29.23203 | 36.29923 | 36061 ft | 425 kts | 266° |
| 2026-05-05 23:44 | 29.23286 | 36.23204 | 36070 ft | 425 kts | 266° |
| 2026-05-05 23:44 | 29.23366 | 36.16428 | 36042 ft | 426 kts | 266° |
| 2026-05-05 23:45 | 29.23443 | 36.09647 | 36059 ft | 426 kts | 266° |
| 2026-05-05 23:45 | 29.23516 | 36.02863 | 36068 ft | 426 kts | 266° |
| 2026-05-05 23:46 | 29.23586 | 35.96065 | 36069 ft | 427 kts | 266° |
| 2026-05-05 23:46 | 29.23654 | 35.89263 | 36072 ft | 427 kts | 266° |
| 2026-05-05 23:47 | 29.23717 | 35.82462 | 36077 ft | 427 kts | 266° |
| 2026-05-05 23:47 | 29.23776 | 35.75704 | 36077 ft | 427 kts | 266° |
| 2026-05-05 23:48 | 29.23833 | 35.68865 | 36087 ft | 427 kts | 266° |
| 2026-05-05 23:48 | 29.23886 | 35.62053 | 36087 ft | 427 kts | 266° |
| 2026-05-05 23:49 | 29.23935 | 35.55286 | 36085 ft | 427 kts | 266° |
| 2026-05-05 23:49 | 29.23982 | 35.48486 | 36108 ft | 427 kts | 266° |
| 2026-05-05 23:50 | 29.24024 | 35.41680 | 36094 ft | 428 kts | 266° |
| 2026-05-05 23:50 | 29.24063 | 35.34866 | 36077 ft | 428 kts | 266° |
| 2026-05-05 23:51 | 29.24099 | 35.28053 | 36086 ft | 428 kts | 266° |
| 2026-05-05 23:51 | 29.24130 | 35.21225 | 36088 ft | 428 kts | 266° |
| 2026-05-05 23:52 | 29.24156 | 35.14401 | 36072 ft | 428 kts | 266° |
| 2026-05-05 23:52 | 29.24188 | 35.07586 | 36083 ft | 428 kts | 266° |
| 2026-05-05 23:53 | 29.24210 | 35.00760 | 36075 ft | 429 kts | 266° |
| 2026-05-05 23:53 | 29.24227 | 34.93936 | 36084 ft | 429 kts | 267° |
| 2026-05-05 23:54 | 29.24242 | 34.87105 | 36066 ft | 429 kts | 267° |
| 2026-05-05 23:54 | 29.24254 | 34.80276 | 36065 ft | 428 kts | 266° |
| 2026-05-05 23:55 | 29.24262 | 34.73455 | 36094 ft | 428 kts | 266° |
| 2026-05-05 23:55 | 29.24267 | 34.66643 | 36086 ft | 428 kts | 267° |
| 2026-05-05 23:56 | 29.24268 | 34.59830 | 36092 ft | 428 kts | 267° |
| 2026-05-05 23:56 | 29.24266 | 34.53015 | 36083 ft | 428 kts | 267° |
| 2026-05-05 23:57 | 29.24260 | 34.46201 | 36099 ft | 429 kts | 266° |
| 2026-05-05 23:57 | 29.24251 | 34.39354 | 36091 ft | 430 kts | 267° |
| 2026-05-05 23:58 | 29.24238 | 34.32547 | 36097 ft | 431 kts | 267° |
| 2026-05-05 23:58 | 29.24223 | 34.25686 | 36103 ft | 431 kts | 267° |
| 2026-05-05 23:59 | 29.24203 | 34.18812 | 36113 ft | 432 kts | 267° |
| 2026-05-05 23:59 | 29.24180 | 34.11914 | 36100 ft | 433 kts | 267° |
| 2026-05-06 00:00 | 29.24154 | 34.05013 | 36100 ft | 433 kts | 267° |
| 2026-05-06 00:00 | 29.24318 | 33.98113 | 36117 ft | 436 kts | 273° |
| 2026-05-06 00:01 | 29.25366 | 33.91249 | 36117 ft | 440 kts | 279° |
| 2026-05-06 00:01 | 29.27175 | 33.84520 | 36109 ft | 443 kts | 283° |
| 2026-05-06 00:02 | 29.29127 | 33.77863 | 36108 ft | 443 kts | 284° |
| 2026-05-06 00:02 | 29.31078 | 33.71162 | 36103 ft | 443 kts | 283° |
| 2026-05-06 00:03 | 29.33007 | 33.64445 | 36116 ft | 444 kts | 283° |
| 2026-05-06 00:03 | 29.34924 | 33.57730 | 36106 ft | 443 kts | 283° |
| 2026-05-06 00:04 | 29.36836 | 33.51013 | 36102 ft | 443 kts | 283° |
| 2026-05-06 00:04 | 29.38744 | 33.44300 | 36100 ft | 442 kts | 283° |
| 2026-05-06 00:05 | 29.41593 | 33.34245 | 36097 ft | 442 kts | 283° |
| 2026-05-06 00:06 | 29.43487 | 33.27542 | 36100 ft | 442 kts | 283° |
| 2026-05-06 00:06 | 29.45381 | 33.20827 | 36093 ft | 442 kts | 283° |
| 2026-05-06 00:07 | 29.47269 | 33.14122 | 36100 ft | 442 kts | 284° |
| 2026-05-06 00:07 | 29.49157 | 33.07397 | 36098 ft | 443 kts | 284° |
| 2026-05-06 00:08 | 29.51046 | 33.00655 | 36086 ft | 443 kts | 283° |
| 2026-05-06 00:08 | 29.51988 | 32.97291 | 35972 ft | 443 kts | 284° |
| 2026-05-06 00:08 | 29.52938 | 32.93883 | 35141 ft | 450 kts | 284° |
| 2026-05-06 00:08 | 29.53892 | 32.90467 | 34186 ft | 451 kts | 285° |
| 2026-05-06 00:09 | 29.54852 | 32.87022 | 33128 ft | 453 kts | 285° |
| 2026-05-06 00:09 | 29.55779 | 32.83698 | 32081 ft | 455 kts | 285° |
| 2026-05-06 00:09 | 29.56782 | 32.80094 | 31109 ft | 459 kts | 285° |
| 2026-05-06 00:09 | 29.57753 | 32.76603 | 30341 ft | 457 kts | 285° |
| 2026-05-06 00:10 | 29.58716 | 32.73138 | 29466 ft | 453 kts | 285° |
| 2026-05-06 00:10 | 29.59669 | 32.69706 | 28662 ft | 448 kts | 285° |
| 2026-05-06 00:10 | 29.60579 | 32.66324 | 27903 ft | 441 kts | 283° |
| 2026-05-06 00:10 | 29.61368 | 32.62995 | 27189 ft | 435 kts | 282° |
| 2026-05-06 00:11 | 29.62119 | 32.59594 | 26484 ft | 430 kts | 282° |
| 2026-05-06 00:11 | 29.62828 | 32.56329 | 25795 ft | 426 kts | 282° |
| 2026-05-06 00:11 | 29.63547 | 32.53040 | 25108 ft | 422 kts | 282° |
| 2026-05-06 00:11 | 29.64265 | 32.49788 | 24421 ft | 419 kts | 283° |
| 2026-05-06 00:12 | 29.64989 | 32.46547 | 23727 ft | 416 kts | 283° |
| 2026-05-06 00:12 | 29.65709 | 32.43343 | 22936 ft | 414 kts | 283° |
| 2026-05-06 00:12 | 29.66428 | 32.40152 | 22225 ft | 409 kts | 283° |
| 2026-05-06 00:12 | 29.67140 | 32.36999 | 21550 ft | 405 kts | 283° |
| 2026-05-06 00:13 | 29.67842 | 32.33882 | 20887 ft | 401 kts | 283° |
| 2026-05-06 00:13 | 29.68537 | 32.30791 | 20247 ft | 397 kts | 283° |
| 2026-05-06 00:13 | 29.69227 | 32.27723 | 19607 ft | 394 kts | 283° |
| 2026-05-06 00:13 | 29.69909 | 32.24681 | 18960 ft | 391 kts | 283° |
| 2026-05-06 00:14 | 29.70586 | 32.21659 | 18298 ft | 389 kts | 283° |
| 2026-05-06 00:14 | 29.71257 | 32.18663 | 17605 ft | 386 kts | 283° |
| 2026-05-06 00:14 | 29.71924 | 32.15683 | 16953 ft | 382 kts | 283° |
| 2026-05-06 00:14 | 29.72580 | 32.12742 | 16321 ft | 378 kts | 283° |
| 2026-05-06 00:15 | 29.73232 | 32.09819 | 15703 ft | 375 kts | 283° |
| 2026-05-06 00:15 | 29.73876 | 32.06929 | 15104 ft | 372 kts | 284° |
| 2026-05-06 00:15 | 29.74515 | 32.04055 | 14498 ft | 369 kts | 284° |
| 2026-05-06 00:15 | 29.75142 | 32.01236 | 13897 ft | 367 kts | 284° |
| 2026-05-06 00:16 | 29.75771 | 31.98403 | 13290 ft | 363 kts | 284° |
| 2026-05-06 00:16 | 29.76394 | 31.95598 | 12645 ft | 361 kts | 284° |
| 2026-05-06 00:16 | 29.77012 | 31.92810 | 12055 ft | 358 kts | 284° |
| 2026-05-06 00:16 | 29.77644 | 31.90063 | 11484 ft | 352 kts | 287° |
| 2026-05-06 00:17 | 29.78615 | 31.87504 | 11144 ft | 344 kts | 298° |
| 2026-05-06 00:17 | 29.79855 | 31.85207 | 10970 ft | 332 kts | 303° |
| 2026-05-06 00:17 | 29.81298 | 31.83186 | 10817 ft | 321 kts | 311° |
| 2026-05-06 00:17 | 29.82818 | 31.81366 | 10669 ft | 309 kts | 312° |
| 2026-05-06 00:18 | 29.84289 | 31.79623 | 10551 ft | 299 kts | 312° |
| 2026-05-06 00:18 | 29.85714 | 31.77935 | 10429 ft | 288 kts | 312° |
| 2026-05-06 00:18 | 29.87085 | 31.76304 | 10304 ft | 278 kts | 312° |
| 2026-05-06 00:18 | 29.88408 | 31.74725 | 10190 ft | 268 kts | 312° |
| 2026-05-06 00:19 | 29.89684 | 31.73199 | 10044 ft | 260 kts | 312° |
| 2026-05-06 00:19 | 29.90924 | 31.71710 | 9712 ft | 262 kts | 312° |
| 2026-05-06 00:19 | 29.92183 | 31.70197 | 9390 ft | 261 kts | 312° |
| 2026-05-06 00:19 | 29.93428 | 31.68682 | 9067 ft | 257 kts | 311° |
| 2026-05-06 00:20 | 29.94795 | 31.67410 | 8715 ft | 255 kts | 334° |
| 2026-05-06 00:20 | 29.96535 | 31.67030 | 8426 ft | 257 kts | 358° |
| 2026-05-06 00:20 | 29.98339 | 31.67212 | 8209 ft | 262 kts | 4° |
| 2026-05-06 00:20 | 30.00151 | 31.67491 | 8110 ft | 267 kts | 4° |
| 2026-05-06 00:21 | 30.01999 | 31.67783 | 7968 ft | 265 kts | 4° |
| 2026-05-06 00:21 | 30.03821 | 31.68073 | 7755 ft | 267 kts | 5° |
| 2026-05-06 00:21 | 30.05631 | 31.68360 | 7772 ft | 260 kts | 5° |
| 2026-05-06 00:21 | 30.07435 | 31.68645 | 7571 ft | 263 kts | 5° |
| 2026-05-06 00:22 | 30.09232 | 31.68927 | 7595 ft | 260 kts | 5° |
| 2026-05-06 00:22 | 30.11029 | 31.69207 | 7463 ft | 260 kts | 5° |
| 2026-05-06 00:22 | 30.12803 | 31.69484 | 7302 ft | 253 kts | 5° |
| 2026-05-06 00:22 | 30.14525 | 31.69753 | 7139 ft | 247 kts | 5° |
| 2026-05-06 00:23 | 30.16214 | 31.70016 | 6903 ft | 244 kts | 5° |
| 2026-05-06 00:23 | 30.17884 | 31.70271 | 6658 ft | 241 kts | 5° |
| 2026-05-06 00:23 | 30.19539 | 31.70520 | 6410 ft | 238 kts | 5° |
| 2026-05-06 00:23 | 30.21175 | 31.70761 | 6145 ft | 236 kts | 5° |
| 2026-05-06 00:24 | 30.22783 | 31.70992 | 5882 ft | 230 kts | 4° |
| 2026-05-06 00:24 | 30.24358 | 31.71012 | 5611 ft | 225 kts | 355° |
| 2026-05-06 00:24 | 30.25908 | 31.70903 | 5353 ft | 222 kts | 355° |
| 2026-05-06 00:24 | 30.27438 | 31.70792 | 5096 ft | 219 kts | 355° |
| 2026-05-06 00:25 | 30.28936 | 31.70612 | 4814 ft | 212 kts | 341° |
| 2026-05-06 00:25 | 30.30055 | 31.69623 | 4491 ft | 204 kts | 296° |
| 2026-05-06 00:25 | 30.30226 | 31.68055 | 4216 ft | 198 kts | 256° |
| 2026-05-06 00:25 | 30.29755 | 31.66585 | 4057 ft | 194 kts | 254° |
| 2026-05-06 00:26 | 30.29239 | 31.65147 | 3918 ft | 197 kts | 242° |
| 2026-05-06 00:26 | 30.28488 | 31.63813 | 3664 ft | 197 kts | 238° |
| 2026-05-06 00:26 | 30.27721 | 31.62513 | 3411 ft | 194 kts | 238° |
| 2026-05-06 00:26 | 30.26972 | 31.61235 | 3128 ft | 189 kts | 238° |
| 2026-05-06 00:27 | 30.26261 | 31.60011 | 2841 ft | 181 kts | 239° |
| 2026-05-06 00:27 | 30.25578 | 31.58826 | 2521 ft | 169 kts | 239° |
| 2026-05-06 00:27 | 30.24958 | 31.57743 | 2231 ft | 161 kts | 239° |
| 2026-05-06 00:27 | 30.24347 | 31.56669 | 2114 ft | 159 kts | 239° |
| 2026-05-06 00:28 | 30.23938 | 31.55947 | 2088 ft | 159 kts | 240° |
| 2026-05-06 00:28 | 30.23137 | 31.54529 | 2055 ft | 159 kts | 240° |
| 2026-05-06 00:28 | 30.22530 | 31.53451 | 2006 ft | 160 kts | 239° |
| 2026-05-06 00:28 | 30.21923 | 31.52374 | 2008 ft | 164 kts | 240° |
| 2026-05-06 00:29 | 30.21289 | 31.51248 | 2014 ft | 169 kts | 239° |
| 2026-05-06 00:29 | 30.20853 | 31.50474 | 2012 ft | 171 kts | 239° |
| 2026-05-06 00:29 | 30.20202 | 31.49319 | 2006 ft | 171 kts | 239° |
| 2026-05-06 00:29 | 30.19547 | 31.48190 | 2000 ft | 171 kts | 236° |
| 2026-05-06 00:30 | 30.18800 | 31.47096 | 1998 ft | 171 kts | 232° |
| 2026-05-06 00:30 | 30.18012 | 31.46043 | 1836 ft | 176 kts | 231° |
| 2026-05-06 00:30 | 30.17222 | 31.44995 | 1580 ft | 166 kts | 225° |
| 2026-05-06 00:30 | 30.16474 | 31.44061 | 1247 ft | 149 kts | 229° |
| 2026-05-06 00:31 | 30.15849 | 31.43184 | 1065 ft | 151 kts | 231° |
| 2026-05-06 00:31 | 30.15144 | 31.42261 | 865 ft | 153 kts | 227° |
| 2026-05-06 00:31 | 30.14433 | 31.41353 | 632 ft | 155 kts | 225° |
| 2026-05-06 00:31 | 30.13732 | 31.40388 | 398 ft | 156 kts | 230° |
| 2026-05-06 00:32 | 30.13082 | 31.39511 | 380 ft | 127 kts | 230° |
| 2026-05-06 00:32 | 30.12626 | 31.38901 | 378 ft | 74 kts | 227° |
| 2026-05-06 00:32 | 30.12374 | 31.38577 | 377 ft | 48 kts | 232° |
| 2026-05-06 00:32 | 30.12235 | 31.38435 | 381 ft | 19 kts | 175° |
| 2026-05-06 00:33 | 30.12136 | 31.38530 | 379 ft | 20 kts | 97° |
| 2026-05-06 00:33 | 30.12200 | 31.38667 | 379 ft | 20 kts | 56° |
| 2026-05-06 00:33 | 30.12284 | 31.38792 | 379 ft | 20 kts | 49° |
| 2026-05-06 00:33 | 30.12379 | 31.38907 | 379 ft | 20 kts | 45° |
| 2026-05-06 00:34 | 30.12486 | 31.39033 | 379 ft | 23 kts | 53° |
| 2026-05-06 00:34 | 30.12591 | 31.39192 | 379 ft | 26 kts | 52° |
| 2026-05-06 00:34 | 30.12714 | 31.39357 | 379 ft | 28 kts | 48° |
| 2026-05-06 00:34 | 30.12843 | 31.39523 | 379 ft | 28 kts | 48° |
| 2026-05-06 00:35 | 30.12970 | 31.39690 | 379 ft | 28 kts | 49° |
| 2026-05-06 00:35 | 30.13096 | 31.39859 | 379 ft | 28 kts | 50° |
| 2026-05-06 00:35 | 30.13221 | 31.40030 | 379 ft | 29 kts | 50° |
| 2026-05-06 00:35 | 30.13268 | 31.40234 | 379 ft | 29 kts | 101° |